sensor_id;sensor_type;location;lat;lon;timestamp;temperature;humidity
1075;DHT22;526;51.392;12.448;2023-01-13T00:00:43;10.70;97.30
1075;DHT22;526;51.392;12.448;2023-01-13T00:03:08;10.70;97.30
1075;DHT22;526;51.392;12.448;2023-01-13T00:05:34;10.70;97.30
1075;DHT22;526;51.392;12.448;2023-01-13T00:08:01;10.70;97.30
1075;DHT22;526;51.392;12.448;2023-01-13T00:10:29;10.70;97.30
1075;DHT22;526;51.392;12.448;2023-01-13T00:12:54;10.70;97.30
1075;DHT22;526;51.392;12.448;2023-01-13T00:15:20;10.70;97.30
1075;DHT22;526;51.392;12.448;2023-01-13T00:17:45;10.70;97.30
1075;DHT22;526;51.392;12.448;2023-01-13T00:20:13;10.70;97.30
1075;DHT22;526;51.392;12.448;2023-01-13T00:22:38;10.70;97.30
1075;DHT22;526;51.392;12.448;2023-01-13T00:25:04;10.60;97.30
1075;DHT22;526;51.392;12.448;2023-01-13T00:27:31;10.60;97.30
1075;DHT22;526;51.392;12.448;2023-01-13T00:29:57;10.60;97.30
1075;DHT22;526;51.392;12.448;2023-01-13T00:32:22;10.60;97.30
1075;DHT22;526;51.392;12.448;2023-01-13T00:34:48;10.60;97.30
1075;DHT22;526;51.392;12.448;2023-01-13T00:37:13;10.60;97.30
1075;DHT22;526;51.392;12.448;2023-01-13T00:39:40;10.60;97.30
1075;DHT22;526;51.392;12.448;2023-01-13T00:42:06;10.60;97.30
1075;DHT22;526;51.392;12.448;2023-01-13T00:44:50;10.60;97.30
1075;DHT22;526;51.392;12.448;2023-01-13T00:47:16;10.60;97.30
1075;DHT22;526;51.392;12.448;2023-01-13T00:49:41;10.70;97.30
1075;DHT22;526;51.392;12.448;2023-01-13T00:52:07;10.60;97.30
1075;DHT22;526;51.392;12.448;2023-01-13T00:54:32;10.60;97.30
1075;DHT22;526;51.392;12.448;2023-01-13T00:56:58;10.60;97.30
1075;DHT22;526;51.392;12.448;2023-01-13T00:59:23;10.60;97.30
1075;DHT22;526;51.392;12.448;2023-01-13T01:01:49;10.60;97.30
1075;DHT22;526;51.392;12.448;2023-01-13T01:04:14;10.60;97.30
1075;DHT22;526;51.392;12.448;2023-01-13T01:06:40;10.50;97.30
1075;DHT22;526;51.392;12.448;2023-01-13T01:09:05;10.60;97.30
1075;DHT22;526;51.392;12.448;2023-01-13T01:11:32;10.60;97.30
1075;DHT22;526;51.392;12.448;2023-01-13T01:14:00;10.60;97.30
1075;DHT22;526;51.392;12.448;2023-01-13T01:16:27;10.50;97.30
1075;DHT22;526;51.392;12.448;2023-01-13T01:18:53;10.60;97.30
1075;DHT22;526;51.392;12.448;2023-01-13T01:21:21;10.60;97.30
1075;DHT22;526;51.392;12.448;2023-01-13T01:23:47;10.60;97.30
1075;DHT22;526;51.392;12.448;2023-01-13T01:26:15;10.60;97.30
1075;DHT22;526;51.392;12.448;2023-01-13T01:28:42;10.60;97.30
1075;DHT22;526;51.392;12.448;2023-01-13T01:31:11;10.60;97.30
1075;DHT22;526;51.392;12.448;2023-01-13T01:33:36;10.60;97.30
1075;DHT22;526;51.392;12.448;2023-01-13T01:36:03;10.60;97.30
1075;DHT22;526;51.392;12.448;2023-01-13T01:38:29;10.60;97.30
1075;DHT22;526;51.392;12.448;2023-01-13T01:40:54;10.60;97.30
1075;DHT22;526;51.392;12.448;2023-01-13T01:43:22;10.60;97.30
1075;DHT22;526;51.392;12.448;2023-01-13T01:46:07;10.70;97.30
1075;DHT22;526;51.392;12.448;2023-01-13T01:48:36;10.70;97.30
1075;DHT22;526;51.392;12.448;2023-01-13T01:51:03;10.70;97.30
1075;DHT22;526;51.392;12.448;2023-01-13T01:53:32;10.70;97.30
1075;DHT22;526;51.392;12.448;2023-01-13T01:55:58;10.60;97.30
1075;DHT22;526;51.392;12.448;2023-01-13T01:58:31;10.70;97.30
1075;DHT22;526;51.392;12.448;2023-01-13T02:00:59;10.70;97.30
1075;DHT22;526;51.392;12.448;2023-01-13T02:03:25;10.70;97.30
1075;DHT22;526;51.392;12.448;2023-01-13T02:05:51;10.70;97.30
1075;DHT22;526;51.392;12.448;2023-01-13T02:08:17;10.70;97.30
1075;DHT22;526;51.392;12.448;2023-01-13T02:10:45;10.60;97.30
1075;DHT22;526;51.392;12.448;2023-01-13T02:13:13;10.60;97.30
1075;DHT22;526;51.392;12.448;2023-01-13T02:15:56;10.70;97.30
1075;DHT22;526;51.392;12.448;2023-01-13T02:21:39;10.70;97.30
1075;DHT22;526;51.392;12.448;2023-01-13T02:27:52;10.70;97.30
1075;DHT22;526;51.392;12.448;2023-01-13T02:36:58;10.80;97.30
1075;DHT22;526;51.392;12.448;2023-01-13T02:39:40;10.80;97.30
1075;DHT22;526;51.392;12.448;2023-01-13T02:42:11;10.80;97.30
1075;DHT22;526;51.392;12.448;2023-01-13T02:45:03;10.90;97.30
1075;DHT22;526;51.392;12.448;2023-01-13T02:47:34;10.90;97.30
1075;DHT22;526;51.392;12.448;2023-01-13T02:50:13;11.00;97.30
1075;DHT22;526;51.392;12.448;2023-01-13T02:52:57;11.00;97.30
1075;DHT22;526;51.392;12.448;2023-01-13T02:55:34;10.90;97.30
1075;DHT22;526;51.392;12.448;2023-01-13T02:58:04;10.90;97.30
1075;DHT22;526;51.392;12.448;2023-01-13T03:00:31;10.90;97.30
1075;DHT22;526;51.392;12.448;2023-01-13T03:02:57;10.90;97.30
1075;DHT22;526;51.392;12.448;2023-01-13T03:05:23;10.90;97.30
1075;DHT22;526;51.392;12.448;2023-01-13T03:11:00;11.00;97.30
1075;DHT22;526;51.392;12.448;2023-01-13T03:16:26;11.00;97.30
1075;DHT22;526;51.392;12.448;2023-01-13T03:22:00;11.00;97.30
1075;DHT22;526;51.392;12.448;2023-01-13T03:24:36;10.90;97.30
1075;DHT22;526;51.392;12.448;2023-01-13T03:27:22;10.90;97.30
1075;DHT22;526;51.392;12.448;2023-01-13T03:29:56;10.90;97.30
1075;DHT22;526;51.392;12.448;2023-01-13T03:32:27;10.90;97.30
1075;DHT22;526;51.392;12.448;2023-01-13T03:35:03;10.90;97.30
1075;DHT22;526;51.392;12.448;2023-01-13T03:37:38;10.90;97.30
1075;DHT22;526;51.392;12.448;2023-01-13T03:40:13;10.90;97.30
1075;DHT22;526;51.392;12.448;2023-01-13T03:42:41;10.90;97.30
1075;DHT22;526;51.392;12.448;2023-01-13T03:45:32;10.80;97.30
1075;DHT22;526;51.392;12.448;2023-01-13T03:48:02;10.90;97.30
1075;DHT22;526;51.392;12.448;2023-01-13T03:50:38;10.90;97.30
1075;DHT22;526;51.392;12.448;2023-01-13T03:53:09;10.90;97.30
1075;DHT22;526;51.392;12.448;2023-01-13T03:55:41;10.90;97.30
1075;DHT22;526;51.392;12.448;2023-01-13T03:58:25;10.90;97.30
1075;DHT22;526;51.392;12.448;2023-01-13T04:00:58;10.90;97.30
1075;DHT22;526;51.392;12.448;2023-01-13T04:03:32;10.80;97.30
1075;DHT22;526;51.392;12.448;2023-01-13T04:09:37;10.80;97.30
1075;DHT22;526;51.392;12.448;2023-01-13T04:11:59;10.90;97.30
1075;DHT22;526;51.392;12.448;2023-01-13T04:14:26;10.90;97.30
1075;DHT22;526;51.392;12.448;2023-01-13T04:16:53;10.80;97.30
1075;DHT22;526;51.392;12.448;2023-01-13T04:19:20;10.80;97.30
1075;DHT22;526;51.392;12.448;2023-01-13T04:21:45;10.80;97.30
1075;DHT22;526;51.392;12.448;2023-01-13T04:24:11;10.80;97.30
1075;DHT22;526;51.392;12.448;2023-01-13T04:26:37;10.80;97.30
1075;DHT22;526;51.392;12.448;2023-01-13T04:29:02;10.80;97.30
1075;DHT22;526;51.392;12.448;2023-01-13T04:31:28;10.70;97.30
1075;DHT22;526;51.392;12.448;2023-01-13T04:33:53;10.70;97.30
1075;DHT22;526;51.392;12.448;2023-01-13T04:36:19;10.70;97.30
1075;DHT22;526;51.392;12.448;2023-01-13T04:38:49;10.60;97.30
1075;DHT22;526;51.392;12.448;2023-01-13T04:41:15;10.60;97.30
1075;DHT22;526;51.392;12.448;2023-01-13T04:43:41;10.60;97.30
1075;DHT22;526;51.392;12.448;2023-01-13T04:46:06;10.60;97.30
1075;DHT22;526;51.392;12.448;2023-01-13T04:48:42;10.60;97.30
1075;DHT22;526;51.392;12.448;2023-01-13T04:51:10;10.60;97.30
1075;DHT22;526;51.392;12.448;2023-01-13T04:53:36;10.60;97.30
1075;DHT22;526;51.392;12.448;2023-01-13T04:56:01;10.60;97.30
1075;DHT22;526;51.392;12.448;2023-01-13T04:58:27;10.60;97.30
1075;DHT22;526;51.392;12.448;2023-01-13T05:00:52;10.70;97.30
1075;DHT22;526;51.392;12.448;2023-01-13T05:03:19;10.70;97.30
1075;DHT22;526;51.392;12.448;2023-01-13T05:05:44;10.70;97.30
1075;DHT22;526;51.392;12.448;2023-01-13T05:08:14;10.70;97.30
1075;DHT22;526;51.392;12.448;2023-01-13T05:10:40;10.70;97.30
1075;DHT22;526;51.392;12.448;2023-01-13T05:13:05;10.70;97.30
1075;DHT22;526;51.392;12.448;2023-01-13T05:18:18;10.70;97.30
1075;DHT22;526;51.392;12.448;2023-01-13T05:20:44;10.70;97.30
1075;DHT22;526;51.392;12.448;2023-01-13T05:23:10;10.70;97.30
1075;DHT22;526;51.392;12.448;2023-01-13T05:25:54;10.70;97.30
1075;DHT22;526;51.392;12.448;2023-01-13T05:28:20;10.70;97.30
1075;DHT22;526;51.392;12.448;2023-01-13T05:30:46;10.60;97.30
1075;DHT22;526;51.392;12.448;2023-01-13T05:33:15;10.70;97.30
1075;DHT22;526;51.392;12.448;2023-01-13T05:35:42;10.60;97.30
1075;DHT22;526;51.392;12.448;2023-01-13T05:38:09;10.60;97.30
1075;DHT22;526;51.392;12.448;2023-01-13T05:40:37;10.60;97.30
1075;DHT22;526;51.392;12.448;2023-01-13T05:43:21;10.60;97.30
1075;DHT22;526;51.392;12.448;2023-01-13T05:46:00;10.60;97.30
1075;DHT22;526;51.392;12.448;2023-01-13T05:48:34;10.60;97.30
1075;DHT22;526;51.392;12.448;2023-01-13T05:51:01;10.60;97.30
1075;DHT22;526;51.392;12.448;2023-01-13T05:53:28;10.60;97.30
1075;DHT22;526;51.392;12.448;2023-01-13T05:55:54;10.60;97.30
1075;DHT22;526;51.392;12.448;2023-01-13T05:58:22;10.60;97.30
1075;DHT22;526;51.392;12.448;2023-01-13T06:00:48;10.60;97.30
1075;DHT22;526;51.392;12.448;2023-01-13T06:03:15;10.60;97.30
1075;DHT22;526;51.392;12.448;2023-01-13T06:05:41;10.60;97.30
1075;DHT22;526;51.392;12.448;2023-01-13T06:08:07;10.60;97.30
1075;DHT22;526;51.392;12.448;2023-01-13T06:10:33;10.60;97.30
1075;DHT22;526;51.392;12.448;2023-01-13T06:12:59;10.60;97.30
1075;DHT22;526;51.392;12.448;2023-01-13T06:15:25;10.60;97.30
1075;DHT22;526;51.392;12.448;2023-01-13T06:17:51;10.60;97.30
1075;DHT22;526;51.392;12.448;2023-01-13T06:20:16;10.60;97.30
1075;DHT22;526;51.392;12.448;2023-01-13T06:22:45;10.60;97.30
1075;DHT22;526;51.392;12.448;2023-01-13T06:25:45;10.60;97.30
1075;DHT22;526;51.392;12.448;2023-01-13T06:28:12;10.60;97.30
1075;DHT22;526;51.392;12.448;2023-01-13T06:30:47;10.60;97.30
1075;DHT22;526;51.392;12.448;2023-01-13T06:33:15;10.60;97.30
1075;DHT22;526;51.392;12.448;2023-01-13T06:35:47;10.60;97.30
1075;DHT22;526;51.392;12.448;2023-01-13T06:38:15;10.50;97.30
1075;DHT22;526;51.392;12.448;2023-01-13T06:40:42;10.40;97.30
1075;DHT22;526;51.392;12.448;2023-01-13T06:43:08;10.40;97.30
1075;DHT22;526;51.392;12.448;2023-01-13T06:45:41;10.40;97.30
1075;DHT22;526;51.392;12.448;2023-01-13T06:48:07;10.40;97.30
1075;DHT22;526;51.392;12.448;2023-01-13T06:50:33;10.40;97.30
1075;DHT22;526;51.392;12.448;2023-01-13T06:52:58;10.40;97.30
1075;DHT22;526;51.392;12.448;2023-01-13T06:55:24;10.30;97.30
1075;DHT22;526;51.392;12.448;2023-01-13T06:57:52;10.00;97.30
1075;DHT22;526;51.392;12.448;2023-01-13T07:00:18;9.70;97.30
1075;DHT22;526;51.392;12.448;2023-01-13T07:02:44;9.50;97.30
1075;DHT22;526;51.392;12.448;2023-01-13T07:05:10;9.20;97.30
1075;DHT22;526;51.392;12.448;2023-01-13T07:07:35;9.10;97.30
1075;DHT22;526;51.392;12.448;2023-01-13T07:10:01;8.90;97.30
1075;DHT22;526;51.392;12.448;2023-01-13T07:12:27;8.80;97.30
1075;DHT22;526;51.392;12.448;2023-01-13T07:14:53;8.70;97.30
1075;DHT22;526;51.392;12.448;2023-01-13T07:17:37;8.60;97.30
1075;DHT22;526;51.392;12.448;2023-01-13T07:20:02;8.60;97.30
1075;DHT22;526;51.392;12.448;2023-01-13T07:22:28;8.50;97.30
1075;DHT22;526;51.392;12.448;2023-01-13T07:24:54;8.50;97.30
1075;DHT22;526;51.392;12.448;2023-01-13T07:27:19;8.40;97.30
1075;DHT22;526;51.392;12.448;2023-01-13T07:29:44;8.40;97.30
1075;DHT22;526;51.392;12.448;2023-01-13T07:32:12;8.30;97.30
1075;DHT22;526;51.392;12.448;2023-01-13T07:34:39;8.30;97.30
1075;DHT22;526;51.392;12.448;2023-01-13T07:37:05;8.30;97.30
1075;DHT22;526;51.392;12.448;2023-01-13T07:39:31;8.30;97.30
1075;DHT22;526;51.392;12.448;2023-01-13T07:41:58;8.30;97.30
1075;DHT22;526;51.392;12.448;2023-01-13T07:44:42;8.20;97.30
1075;DHT22;526;51.392;12.448;2023-01-13T07:47:08;8.20;97.30
1075;DHT22;526;51.392;12.448;2023-01-13T07:49:35;8.20;97.30
1075;DHT22;526;51.392;12.448;2023-01-13T07:52:01;8.20;97.30
1075;DHT22;526;51.392;12.448;2023-01-13T07:54:26;8.20;97.30
1075;DHT22;526;51.392;12.448;2023-01-13T07:56:55;8.20;97.30
1075;DHT22;526;51.392;12.448;2023-01-13T07:59:20;8.20;97.30
1075;DHT22;526;51.392;12.448;2023-01-13T08:01:46;8.20;97.30
1075;DHT22;526;51.392;12.448;2023-01-13T08:04:11;8.20;97.30
1075;DHT22;526;51.392;12.448;2023-01-13T08:06:38;8.20;97.30
1075;DHT22;526;51.392;12.448;2023-01-13T08:09:05;8.20;97.30
1075;DHT22;526;51.392;12.448;2023-01-13T08:11:30;8.10;97.30
1075;DHT22;526;51.392;12.448;2023-01-13T08:13:56;8.10;97.30
1075;DHT22;526;51.392;12.448;2023-01-13T08:16:22;8.10;97.30
1075;DHT22;526;51.392;12.448;2023-01-13T08:19:00;8.10;97.30
1075;DHT22;526;51.392;12.448;2023-01-13T08:21:32;8.10;97.30
1075;DHT22;526;51.392;12.448;2023-01-13T08:24:10;8.00;97.30
1075;DHT22;526;51.392;12.448;2023-01-13T08:26:42;8.00;97.30
1075;DHT22;526;51.392;12.448;2023-01-13T08:29:20;8.00;97.30
1075;DHT22;526;51.392;12.448;2023-01-13T08:31:51;8.00;97.30
1075;DHT22;526;51.392;12.448;2023-01-13T08:34:20;8.00;97.30
1075;DHT22;526;51.392;12.448;2023-01-13T08:39:41;8.00;97.30
1075;DHT22;526;51.392;12.448;2023-01-13T08:42:12;8.00;97.30
1075;DHT22;526;51.392;12.448;2023-01-13T08:44:42;8.00;97.30
1075;DHT22;526;51.392;12.448;2023-01-13T08:47:10;8.00;97.30
1075;DHT22;526;51.392;12.448;2023-01-13T08:49:38;8.00;97.30
1075;DHT22;526;51.392;12.448;2023-01-13T08:52:12;8.00;97.30
1075;DHT22;526;51.392;12.448;2023-01-13T08:54:40;8.00;97.30
1075;DHT22;526;51.392;12.448;2023-01-13T08:57:29;8.00;97.30
1075;DHT22;526;51.392;12.448;2023-01-13T09:00:11;8.00;97.30
1075;DHT22;526;51.392;12.448;2023-01-13T09:02:39;8.00;97.30
1075;DHT22;526;51.392;12.448;2023-01-13T09:05:25;8.00;97.30
1075;DHT22;526;51.392;12.448;2023-01-13T09:08:01;8.00;97.30
1075;DHT22;526;51.392;12.448;2023-01-13T09:10:27;8.00;97.30
1075;DHT22;526;51.392;12.448;2023-01-13T09:12:52;8.00;97.30
1075;DHT22;526;51.392;12.448;2023-01-13T09:15:36;8.00;97.30
1075;DHT22;526;51.392;12.448;2023-01-13T09:18:02;8.00;97.30
1075;DHT22;526;51.392;12.448;2023-01-13T09:20:27;8.00;97.30
1075;DHT22;526;51.392;12.448;2023-01-13T09:22:53;7.90;97.30
1075;DHT22;526;51.392;12.448;2023-01-13T09:25:18;8.00;97.30
1075;DHT22;526;51.392;12.448;2023-01-13T09:27:44;8.00;97.30
1075;DHT22;526;51.392;12.448;2023-01-13T09:30:10;8.00;97.30
1075;DHT22;526;51.392;12.448;2023-01-13T09:32:35;8.00;97.30
1075;DHT22;526;51.392;12.448;2023-01-13T09:35:03;8.00;97.30
1075;DHT22;526;51.392;12.448;2023-01-13T09:39:56;8.00;97.30
1075;DHT22;526;51.392;12.448;2023-01-13T09:42:39;8.00;97.30
1075;DHT22;526;51.392;12.448;2023-01-13T09:45:41;8.00;97.30
1075;DHT22;526;51.392;12.448;2023-01-13T09:48:14;8.00;97.30
1075;DHT22;526;51.392;12.448;2023-01-13T09:51:01;8.00;97.30
1075;DHT22;526;51.392;12.448;2023-01-13T09:53:37;8.00;97.30
1075;DHT22;526;51.392;12.448;2023-01-13T09:56:04;8.10;97.30
1075;DHT22;526;51.392;12.448;2023-01-13T09:58:31;8.10;97.30
1075;DHT22;526;51.392;12.448;2023-01-13T10:03:41;8.10;97.30
1075;DHT22;526;51.392;12.448;2023-01-13T10:06:31;8.10;97.30
1075;DHT22;526;51.392;12.448;2023-01-13T10:08:58;8.10;97.30
1075;DHT22;526;51.392;12.448;2023-01-13T10:11:32;8.10;97.30
1075;DHT22;526;51.392;12.448;2023-01-13T10:17:24;8.20;97.30
1075;DHT22;526;51.392;12.448;2023-01-13T10:20:02;8.30;97.30
1075;DHT22;526;51.392;12.448;2023-01-13T10:25:20;8.30;97.30
1075;DHT22;526;51.392;12.448;2023-01-13T10:27:51;8.30;97.30
1075;DHT22;526;51.392;12.448;2023-01-13T10:30:26;8.40;97.30
1075;DHT22;526;51.392;12.448;2023-01-13T10:32:57;8.60;97.30
1075;DHT22;526;51.392;12.448;2023-01-13T10:35:46;8.70;97.30
1075;DHT22;526;51.392;12.448;2023-01-13T10:38:25;8.90;97.30
1075;DHT22;526;51.392;12.448;2023-01-13T10:40:54;9.00;97.30
1075;DHT22;526;51.392;12.448;2023-01-13T10:43:20;9.20;97.30
1075;DHT22;526;51.392;12.448;2023-01-13T10:48:32;9.40;97.30
1075;DHT22;526;51.392;12.448;2023-01-13T10:51:09;9.40;97.30
1075;DHT22;526;51.392;12.448;2023-01-13T10:54:28;9.40;97.30
1075;DHT22;526;51.392;12.448;2023-01-13T10:56:31;9.40;97.30
1075;DHT22;526;51.392;12.448;2023-01-13T11:01:42;9.40;97.30
1075;DHT22;526;51.392;12.448;2023-01-13T11:06:50;9.50;97.30
1075;DHT22;526;51.392;12.448;2023-01-13T11:09:19;9.60;97.30
1075;DHT22;526;51.392;12.448;2023-01-13T11:11:45;9.70;97.30
1075;DHT22;526;51.392;12.448;2023-01-13T11:14:38;9.80;97.30
1075;DHT22;526;51.392;12.448;2023-01-13T11:19:51;9.90;97.30
1075;DHT22;526;51.392;12.448;2023-01-13T11:22:26;9.90;97.30
1075;DHT22;526;51.392;12.448;2023-01-13T11:25:03;10.00;97.30
1075;DHT22;526;51.392;12.448;2023-01-13T11:27:56;10.00;97.30
1075;DHT22;526;51.392;12.448;2023-01-13T11:35:39;10.00;97.30
1075;DHT22;526;51.392;12.448;2023-01-13T11:38:19;10.00;97.30
1075;DHT22;526;51.392;12.448;2023-01-13T11:40:54;10.20;97.30
1075;DHT22;526;51.392;12.448;2023-01-13T11:43:31;10.30;97.30
1075;DHT22;526;51.392;12.448;2023-01-13T11:45:59;10.40;97.30
1075;DHT22;526;51.392;12.448;2023-01-13T11:48:28;10.50;97.30
1075;DHT22;526;51.392;12.448;2023-01-13T11:56:50;10.90;97.00
1075;DHT22;526;51.392;12.448;2023-01-13T12:05:14;10.80;95.20
1075;DHT22;526;51.392;12.448;2023-01-13T12:13:24;11.10;94.20
1075;DHT22;526;51.392;12.448;2023-01-13T12:16:13;11.20;93.80
1075;DHT22;526;51.392;12.448;2023-01-13T12:21:35;11.40;92.80
1075;DHT22;526;51.392;12.448;2023-01-13T12:24:35;11.30;92.50
1075;DHT22;526;51.392;12.448;2023-01-13T12:27:18;11.00;92.70
1075;DHT22;526;51.392;12.448;2023-01-13T12:29:46;10.80;93.60
1075;DHT22;526;51.392;12.448;2023-01-13T12:32:21;10.60;93.40
1075;DHT22;526;51.392;12.448;2023-01-13T12:35:03;10.50;93.80
1075;DHT22;526;51.392;12.448;2023-01-13T12:37:48;10.40;94.30
1075;DHT22;526;51.392;12.448;2023-01-13T12:40:42;10.30;94.50
1075;DHT22;526;51.392;12.448;2023-01-13T12:43:22;10.30;95.30
1075;DHT22;526;51.392;12.448;2023-01-13T12:51:36;10.00;96.70
1075;DHT22;526;51.392;12.448;2023-01-13T12:56:48;9.80;97.30
1075;DHT22;526;51.392;12.448;2023-01-13T13:01:47;9.60;97.30
1075;DHT22;526;51.392;12.448;2023-01-13T13:04:19;9.60;97.30
1075;DHT22;526;51.392;12.448;2023-01-13T13:06:50;9.70;97.30
1075;DHT22;526;51.392;12.448;2023-01-13T13:09:28;9.80;97.30
1075;DHT22;526;51.392;12.448;2023-01-13T13:11:55;9.90;97.30
1075;DHT22;526;51.392;12.448;2023-01-13T13:19:55;11.10;96.60
1075;DHT22;526;51.392;12.448;2023-01-13T13:25:19;11.50;92.90
1075;DHT22;526;51.392;12.448;2023-01-13T13:28:04;11.60;94.50
1075;DHT22;526;51.392;12.448;2023-01-13T13:30:36;11.60;96.30
1075;DHT22;526;51.392;12.448;2023-01-13T13:33:19;11.20;97.10
1075;DHT22;526;51.392;12.448;2023-01-13T13:36:34;10.60;97.30
1075;DHT22;526;51.392;12.448;2023-01-13T13:39:02;10.20;97.30
1075;DHT22;526;51.392;12.448;2023-01-13T13:41:55;10.00;97.30
1075;DHT22;526;51.392;12.448;2023-01-13T13:44:46;9.90;97.30
1075;DHT22;526;51.392;12.448;2023-01-13T13:47:38;10.00;97.30
1075;DHT22;526;51.392;12.448;2023-01-13T13:50:07;10.30;97.30
1075;DHT22;526;51.392;12.448;2023-01-13T13:52:42;10.30;97.30
1075;DHT22;526;51.392;12.448;2023-01-13T13:55:18;10.10;97.30
1075;DHT22;526;51.392;12.448;2023-01-13T13:57:50;10.00;97.10
1075;DHT22;526;51.392;12.448;2023-01-13T14:02:54;10.40;95.10
1075;DHT22;526;51.392;12.448;2023-01-13T14:07:50;10.90;92.90
1075;DHT22;526;51.392;12.448;2023-01-13T14:10:27;11.00;92.40
1075;DHT22;526;51.392;12.448;2023-01-13T14:12:52;11.10;91.80
1075;DHT22;526;51.392;12.448;2023-01-13T14:15:24;11.00;90.90
1075;DHT22;526;51.392;12.448;2023-01-13T14:17:50;11.00;90.60
1075;DHT22;526;51.392;12.448;2023-01-13T14:20:16;11.00;91.20
1075;DHT22;526;51.392;12.448;2023-01-13T14:22:50;11.10;91.10
1075;DHT22;526;51.392;12.448;2023-01-13T14:25:26;11.20;90.80
1075;DHT22;526;51.392;12.448;2023-01-13T14:27:53;11.20;90.60
1075;DHT22;526;51.392;12.448;2023-01-13T14:30:21;11.10;90.30
1075;DHT22;526;51.392;12.448;2023-01-13T14:32:48;11.20;90.40
1075;DHT22;526;51.392;12.448;2023-01-13T14:35:15;11.10;90.10
1075;DHT22;526;51.392;12.448;2023-01-13T14:37:42;10.90;90.10
1075;DHT22;526;51.392;12.448;2023-01-13T14:43:12;10.60;91.20
1075;DHT22;526;51.392;12.448;2023-01-13T14:45:54;10.30;91.20
1075;DHT22;526;51.392;12.448;2023-01-13T14:48:21;10.20;91.90
1075;DHT22;526;51.392;12.448;2023-01-13T14:50:48;10.10;91.90
1075;DHT22;526;51.392;12.448;2023-01-13T14:55:58;9.90;93.10
1075;DHT22;526;51.392;12.448;2023-01-13T14:58:26;9.90;93.50
1075;DHT22;526;51.392;12.448;2023-01-13T15:01:34;9.80;93.40
1075;DHT22;526;51.392;12.448;2023-01-13T15:04:22;9.70;93.90
1075;DHT22;526;51.392;12.448;2023-01-13T15:06:52;9.60;94.20
1075;DHT22;526;51.392;12.448;2023-01-13T15:09:26;9.50;94.90
1075;DHT22;526;51.392;12.448;2023-01-13T15:11:53;9.30;95.00
1075;DHT22;526;51.392;12.448;2023-01-13T15:14:25;9.30;95.40
1075;DHT22;526;51.392;12.448;2023-01-13T15:16:55;9.20;95.70
1075;DHT22;526;51.392;12.448;2023-01-13T15:19:22;9.10;95.90
1075;DHT22;526;51.392;12.448;2023-01-13T15:21:47;9.00;96.00
1075;DHT22;526;51.392;12.448;2023-01-13T15:24:13;9.00;96.00
1075;DHT22;526;51.392;12.448;2023-01-13T15:26:38;8.90;96.40
1075;DHT22;526;51.392;12.448;2023-01-13T15:29:10;8.80;96.50
1075;DHT22;526;51.392;12.448;2023-01-13T15:31:37;8.80;96.70
1075;DHT22;526;51.392;12.448;2023-01-13T15:34:03;8.70;96.80
1075;DHT22;526;51.392;12.448;2023-01-13T15:36:30;8.70;96.80
1075;DHT22;526;51.392;12.448;2023-01-13T15:38:57;8.60;96.80
1075;DHT22;526;51.392;12.448;2023-01-13T15:41:26;8.60;96.70
1075;DHT22;526;51.392;12.448;2023-01-13T15:44:11;8.60;96.60
1075;DHT22;526;51.392;12.448;2023-01-13T15:46:58;8.60;96.30
1075;DHT22;526;51.392;12.448;2023-01-13T15:49:38;8.50;96.30
1075;DHT22;526;51.392;12.448;2023-01-13T15:52:21;8.60;96.00
1075;DHT22;526;51.392;12.448;2023-01-13T15:54:48;8.50;95.90
1075;DHT22;526;51.392;12.448;2023-01-13T15:57:26;8.50;95.80
1075;DHT22;526;51.392;12.448;2023-01-13T15:59:55;8.50;95.60
1075;DHT22;526;51.392;12.448;2023-01-13T16:02:21;8.50;95.30
1075;DHT22;526;51.392;12.448;2023-01-13T16:04:48;8.50;95.30
1075;DHT22;526;51.392;12.448;2023-01-13T16:07:17;8.50;95.20
1075;DHT22;526;51.392;12.448;2023-01-13T16:09:45;8.60;94.80
1075;DHT22;526;51.392;12.448;2023-01-13T16:12:12;8.60;94.80
1075;DHT22;526;51.392;12.448;2023-01-13T16:14:38;8.60;94.50
1075;DHT22;526;51.392;12.448;2023-01-13T16:17:20;8.60;94.20
1075;DHT22;526;51.392;12.448;2023-01-13T16:19:46;8.70;94.10
1075;DHT22;526;51.392;12.448;2023-01-13T16:22:16;8.70;94.40
1075;DHT22;526;51.392;12.448;2023-01-13T16:24:42;8.70;94.40
1075;DHT22;526;51.392;12.448;2023-01-13T16:27:15;8.70;94.30
1075;DHT22;526;51.392;12.448;2023-01-13T16:29:42;8.70;94.40
1075;DHT22;526;51.392;12.448;2023-01-13T16:32:08;8.70;94.60
1075;DHT22;526;51.392;12.448;2023-01-13T16:34:33;8.70;94.80
1075;DHT22;526;51.392;12.448;2023-01-13T16:36:59;8.70;95.00
1075;DHT22;526;51.392;12.448;2023-01-13T16:39:24;8.70;95.00
1075;DHT22;526;51.392;12.448;2023-01-13T16:41:50;8.70;95.20
1075;DHT22;526;51.392;12.448;2023-01-13T16:44:16;8.60;95.10
1075;DHT22;526;51.392;12.448;2023-01-13T16:46:42;8.60;95.10
1075;DHT22;526;51.392;12.448;2023-01-13T16:49:14;8.60;95.00
1075;DHT22;526;51.392;12.448;2023-01-13T16:51:40;8.60;95.30
1075;DHT22;526;51.392;12.448;2023-01-13T16:54:06;8.60;95.00
1075;DHT22;526;51.392;12.448;2023-01-13T16:56:34;8.60;95.00
1075;DHT22;526;51.392;12.448;2023-01-13T16:59:06;8.70;95.20
1075;DHT22;526;51.392;12.448;2023-01-13T17:01:33;8.60;95.20
1075;DHT22;526;51.392;12.448;2023-01-13T17:03:59;8.70;95.30
1075;DHT22;526;51.392;12.448;2023-01-13T17:06:41;8.70;95.30
1075;DHT22;526;51.392;12.448;2023-01-13T17:09:14;8.70;95.40
1075;DHT22;526;51.392;12.448;2023-01-13T17:11:40;8.60;95.60
1075;DHT22;526;51.392;12.448;2023-01-13T17:14:05;8.60;95.60
1075;DHT22;526;51.392;12.448;2023-01-13T17:16:31;8.70;95.50
1075;DHT22;526;51.392;12.448;2023-01-13T17:18:59;8.60;95.60
1075;DHT22;526;51.392;12.448;2023-01-13T17:21:25;8.70;95.30
1075;DHT22;526;51.392;12.448;2023-01-13T17:23:50;8.70;95.60
1075;DHT22;526;51.392;12.448;2023-01-13T17:26:36;8.70;95.30
1075;DHT22;526;51.392;12.448;2023-01-13T17:29:18;8.70;95.50
1075;DHT22;526;51.392;12.448;2023-01-13T17:32:19;8.80;95.50
1075;DHT22;526;51.392;12.448;2023-01-13T17:35:13;8.80;95.60
1075;DHT22;526;51.392;12.448;2023-01-13T17:38:04;8.80;95.70
1075;DHT22;526;51.392;12.448;2023-01-13T17:40:35;8.80;95.70
1075;DHT22;526;51.392;12.448;2023-01-13T17:43:03;8.80;96.00
1075;DHT22;526;51.392;12.448;2023-01-13T17:45:39;8.80;95.80
1075;DHT22;526;51.392;12.448;2023-01-13T17:48:08;8.80;96.30
1075;DHT22;526;51.392;12.448;2023-01-13T17:50:34;8.80;96.40
1075;DHT22;526;51.392;12.448;2023-01-13T17:53:00;8.70;96.50
1075;DHT22;526;51.392;12.448;2023-01-13T17:55:44;8.70;96.60
1075;DHT22;526;51.392;12.448;2023-01-13T17:58:15;8.70;96.70
1075;DHT22;526;51.392;12.448;2023-01-13T18:00:41;8.70;96.70
1075;DHT22;526;51.392;12.448;2023-01-13T18:03:07;8.70;96.90
1075;DHT22;526;51.392;12.448;2023-01-13T18:05:32;8.70;96.80
1075;DHT22;526;51.392;12.448;2023-01-13T18:08:00;8.80;96.90
1075;DHT22;526;51.392;12.448;2023-01-13T18:10:25;8.80;97.10
1075;DHT22;526;51.392;12.448;2023-01-13T18:12:51;8.70;97.20
1075;DHT22;526;51.392;12.448;2023-01-13T18:15:19;8.70;97.30
1075;DHT22;526;51.392;12.448;2023-01-13T18:17:47;8.70;97.30
1075;DHT22;526;51.392;12.448;2023-01-13T18:20:14;8.70;97.30
1075;DHT22;526;51.392;12.448;2023-01-13T18:22:58;8.60;97.30